GEC8265 SAEZ-EDDF
Flight info
| Callsign | GEC8265 |
|---|---|
| Flight time | N/A |
| Altitude | 29000 |
| Route | DORVO1L DORVO UN857 TIMVI/N0499F310 UN857 VUPIP UL206 BUGAT/N0502F330 UL206 KODOS DCT TURUP UA302 ANITI R975 SAKLI/N0491F350 UR975 DIDAN/N0478F360 UR975 ADM/N0421F180 G850 MAK M372 ESAMI/N0480F350 M372 AMR/N0477F360 N860 BEGOX DCT VLC M985 SOPET N608 GIROM DCT GAI/N0419F180 V12 CFA A27 MOU/N0473F370 DCT EMPAX EMPAX5A |
| Aircraft | B77L/H-SDE1E2E3FGHIJ2J3J4J5M1RWXY/LB1D1 |
Departure
| Time | N/A |
|---|---|
| Airport | Ezeiza International Airport - Ministro Pistarini (SAEZ) |
Arrival
| Time | 2026-04-18 06:27 |
|---|---|
| Airport | Frankfurt Main Airport (EDDF) |
| Time | Latitude | Longitude | Altitude | Speed | Heading |
|---|---|---|---|---|---|
| 2026-04-18 05:51 | 47.68267 | 6.47526 | 37212 ft | 502 kts | 63° |
| 2026-04-18 05:51 | 47.71294 | 6.56868 | 37212 ft | 502 kts | 63° |
| 2026-04-18 05:52 | 47.74312 | 6.66216 | 37171 ft | 503 kts | 63° |
| 2026-04-18 05:52 | 47.75828 | 6.70922 | 36896 ft | 505 kts | 63° |
| 2026-04-18 05:52 | 47.77335 | 6.75610 | 36847 ft | 499 kts | 63° |
| 2026-04-18 05:53 | 47.80285 | 6.84820 | 36906 ft | 496 kts | 63° |
| 2026-04-18 05:53 | 47.83263 | 6.94142 | 36914 ft | 501 kts | 63° |
| 2026-04-18 05:54 | 47.86257 | 7.03548 | 36904 ft | 504 kts | 63° |
| 2026-04-18 05:54 | 47.89232 | 7.12936 | 36832 ft | 496 kts | 63° |
| 2026-04-18 05:55 | 47.92157 | 7.22202 | 36797 ft | 494 kts | 63° |
| 2026-04-18 05:55 | 47.95084 | 7.31501 | 36794 ft | 496 kts | 63° |
| 2026-04-18 05:56 | 47.98016 | 7.40851 | 36792 ft | 497 kts | 63° |
| 2026-04-18 05:56 | 48.00942 | 7.50220 | 36805 ft | 498 kts | 64° |
| 2026-04-18 05:57 | 48.05301 | 7.64242 | 36786 ft | 498 kts | 64° |
| 2026-04-18 05:58 | 48.08211 | 7.73648 | 36784 ft | 497 kts | 64° |
| 2026-04-18 05:58 | 48.11105 | 7.83038 | 36783 ft | 496 kts | 64° |
| 2026-04-18 05:59 | 48.13983 | 7.92410 | 36787 ft | 495 kts | 64° |
| 2026-04-18 05:59 | 48.16856 | 8.01799 | 36787 ft | 495 kts | 64° |
| 2026-04-18 06:00 | 48.19713 | 8.11172 | 36784 ft | 494 kts | 64° |
| 2026-04-18 06:00 | 48.22563 | 8.20559 | 36788 ft | 494 kts | 64° |
| 2026-04-18 06:01 | 48.25407 | 8.29965 | 36805 ft | 495 kts | 64° |
| 2026-04-18 06:01 | 48.28241 | 8.39368 | 36794 ft | 495 kts | 64° |
| 2026-04-18 06:02 | 48.31055 | 8.48744 | 36790 ft | 495 kts | 64° |
| 2026-04-18 06:02 | 48.33877 | 8.58179 | 36800 ft | 495 kts | 64° |
| 2026-04-18 06:03 | 48.36693 | 8.67633 | 36771 ft | 495 kts | 64° |
| 2026-04-18 06:03 | 48.39488 | 8.77055 | 36348 ft | 493 kts | 64° |
| 2026-04-18 06:03 | 48.40885 | 8.81775 | 35911 ft | 496 kts | 65° |
| 2026-04-18 06:04 | 48.42290 | 8.86531 | 35476 ft | 498 kts | 65° |
| 2026-04-18 06:04 | 48.43743 | 8.91295 | 34524 ft | 502 kts | 59° |
| 2026-04-18 06:04 | 48.45800 | 8.95509 | 33578 ft | 500 kts | 42° |
| 2026-04-18 06:04 | 48.48566 | 8.98646 | 32609 ft | 496 kts | 26° |
| 2026-04-18 06:05 | 48.51714 | 9.00679 | 31632 ft | 492 kts | 13° |
| 2026-04-18 06:05 | 48.55076 | 9.01487 | 30748 ft | 487 kts | 0° |
| 2026-04-18 06:05 | 48.58433 | 9.01746 | 30096 ft | 482 kts | 1° |
| 2026-04-18 06:05 | 48.61771 | 9.02152 | 29339 ft | 479 kts | 2° |
| 2026-04-18 06:06 | 48.65068 | 9.02736 | 28673 ft | 475 kts | 5° |
| 2026-04-18 06:06 | 48.68315 | 9.03509 | 28035 ft | 470 kts | 6° |
| 2026-04-18 06:06 | 48.71526 | 9.04340 | 27394 ft | 466 kts | 7° |
| 2026-04-18 06:06 | 48.74667 | 9.05149 | 26773 ft | 462 kts | 6° |
| 2026-04-18 06:07 | 48.77865 | 9.05945 | 26148 ft | 457 kts | 6° |
| 2026-04-18 06:07 | 48.80957 | 9.06692 | 25554 ft | 454 kts | 6° |
| 2026-04-18 06:07 | 48.84064 | 9.07433 | 24959 ft | 450 kts | 6° |
| 2026-04-18 06:07 | 48.87144 | 9.08168 | 24366 ft | 446 kts | 6° |
| 2026-04-18 06:08 | 48.90206 | 9.08825 | 23755 ft | 442 kts | 3° |
| 2026-04-18 06:08 | 48.93263 | 9.09247 | 23067 ft | 438 kts | 1° |
| 2026-04-18 06:08 | 48.96284 | 9.09608 | 22454 ft | 434 kts | 2° |
| 2026-04-18 06:08 | 48.99277 | 9.09999 | 21865 ft | 429 kts | 2° |
| 2026-04-18 06:09 | 49.02244 | 9.10416 | 21285 ft | 425 kts | 2° |
| 2026-04-18 06:09 | 49.05177 | 9.10837 | 20726 ft | 421 kts | 2° |
| 2026-04-18 06:09 | 49.07104 | 9.11114 | 20361 ft | 418 kts | 2° |
| 2026-04-18 06:09 | 49.09980 | 9.11576 | 20084 ft | 409 kts | 5° |
| 2026-04-18 06:10 | 49.12763 | 9.12305 | 20078 ft | 408 kts | 8° |
| 2026-04-18 06:10 | 49.15582 | 9.13165 | 20088 ft | 418 kts | 9° |
| 2026-04-18 06:10 | 49.18459 | 9.14078 | 20086 ft | 422 kts | 9° |
| 2026-04-18 06:10 | 49.21333 | 9.14990 | 20080 ft | 421 kts | 9° |
| 2026-04-18 06:11 | 49.24206 | 9.15740 | 19988 ft | 415 kts | 3° |
| 2026-04-18 06:11 | 49.27070 | 9.15908 | 19575 ft | 410 kts | 356° |
| 2026-04-18 06:11 | 49.29901 | 9.15581 | 19031 ft | 406 kts | 349° |
| 2026-04-18 06:11 | 49.32682 | 9.14949 | 18497 ft | 403 kts | 349° |
| 2026-04-18 06:12 | 49.35453 | 9.14306 | 17891 ft | 402 kts | 349° |
| 2026-04-18 06:12 | 49.38180 | 9.13673 | 17310 ft | 401 kts | 349° |
| 2026-04-18 06:12 | 49.40934 | 9.13042 | 16759 ft | 399 kts | 349° |
| 2026-04-18 06:12 | 49.43673 | 9.12419 | 16210 ft | 397 kts | 349° |
| 2026-04-18 06:13 | 49.46399 | 9.11804 | 15663 ft | 395 kts | 349° |
| 2026-04-18 06:13 | 49.49115 | 9.11192 | 15123 ft | 393 kts | 349° |
| 2026-04-18 06:13 | 49.51816 | 9.10585 | 14589 ft | 392 kts | 349° |
| 2026-04-18 06:13 | 49.54513 | 9.09978 | 14053 ft | 391 kts | 349° |
| 2026-04-18 06:14 | 49.57202 | 9.09372 | 13461 ft | 390 kts | 349° |
| 2026-04-18 06:14 | 49.59873 | 9.08769 | 12930 ft | 386 kts | 349° |
| 2026-04-18 06:14 | 49.62525 | 9.08170 | 12397 ft | 384 kts | 350° |
| 2026-04-18 06:14 | 49.65162 | 9.07573 | 11923 ft | 381 kts | 350° |
| 2026-04-18 06:15 | 49.67778 | 9.06982 | 11406 ft | 379 kts | 350° |
| 2026-04-18 06:15 | 49.70377 | 9.06394 | 11108 ft | 371 kts | 350° |
| 2026-04-18 06:15 | 49.72899 | 9.05823 | 10880 ft | 363 kts | 350° |
| 2026-04-18 06:15 | 49.75367 | 9.05262 | 10716 ft | 354 kts | 350° |
| 2026-04-18 06:16 | 49.77770 | 9.04716 | 10558 ft | 345 kts | 350° |
| 2026-04-18 06:16 | 49.80122 | 9.04182 | 10397 ft | 337 kts | 350° |
| 2026-04-18 06:16 | 49.82417 | 9.03659 | 10273 ft | 329 kts | 350° |
| 2026-04-18 06:16 | 49.84664 | 9.03146 | 10083 ft | 324 kts | 350° |
| 2026-04-18 06:17 | 49.86876 | 9.02642 | 9881 ft | 319 kts | 350° |
| 2026-04-18 06:17 | 49.89045 | 9.02146 | 9725 ft | 306 kts | 350° |
| 2026-04-18 06:17 | 49.91061 | 9.01682 | 9496 ft | 287 kts | 350° |
| 2026-04-18 06:17 | 49.93017 | 9.01230 | 8850 ft | 283 kts | 350° |
| 2026-04-18 06:18 | 49.94935 | 9.00786 | 8425 ft | 274 kts | 350° |
| 2026-04-18 06:18 | 49.96811 | 9.00355 | 8115 ft | 273 kts | 350° |
| 2026-04-18 06:18 | 49.98692 | 8.99927 | 7800 ft | 274 kts | 350° |
| 2026-04-18 06:18 | 50.00584 | 8.99496 | 7497 ft | 275 kts | 350° |
| 2026-04-18 06:19 | 50.02484 | 8.99060 | 7194 ft | 277 kts | 350° |
| 2026-04-18 06:19 | 50.04395 | 8.98617 | 6876 ft | 275 kts | 350° |
| 2026-04-18 06:19 | 50.06270 | 8.98180 | 6644 ft | 268 kts | 350° |
| 2026-04-18 06:19 | 50.08069 | 8.97765 | 6499 ft | 256 kts | 350° |
| 2026-04-18 06:20 | 50.09792 | 8.97368 | 6378 ft | 244 kts | 350° |
| 2026-04-18 06:20 | 50.11421 | 8.96993 | 6256 ft | 229 kts | 349° |
| 2026-04-18 06:20 | 50.12857 | 8.96231 | 6014 ft | 211 kts | 317° |
| 2026-04-18 06:20 | 50.13637 | 8.94412 | 5877 ft | 206 kts | 282° |
| 2026-04-18 06:21 | 50.13602 | 8.92230 | 5517 ft | 199 kts | 254° |
| 2026-04-18 06:21 | 50.13245 | 8.90125 | 5294 ft | 202 kts | 252° |
| 2026-04-18 06:21 | 50.12822 | 8.88042 | 5016 ft | 202 kts | 250° |
| 2026-04-18 06:21 | 50.12354 | 8.85981 | 4711 ft | 201 kts | 249° |
| 2026-04-18 06:22 | 50.11874 | 8.83943 | 4438 ft | 201 kts | 248° |
| 2026-04-18 06:22 | 50.11395 | 8.81929 | 4173 ft | 201 kts | 249° |
| 2026-04-18 06:22 | 50.10903 | 8.79867 | 3910 ft | 201 kts | 249° |
| 2026-04-18 06:22 | 50.10424 | 8.77859 | 3641 ft | 200 kts | 249° |
| 2026-04-18 06:23 | 50.09940 | 8.75829 | 3395 ft | 200 kts | 249° |
| 2026-04-18 06:23 | 50.09456 | 8.73797 | 3075 ft | 196 kts | 249° |
| 2026-04-18 06:23 | 50.08991 | 8.71846 | 2857 ft | 196 kts | 249° |
| 2026-04-18 06:23 | 50.08515 | 8.69851 | 2635 ft | 195 kts | 249° |
| 2026-04-18 06:24 | 50.08061 | 8.67951 | 2344 ft | 179 kts | 249° |
| 2026-04-18 06:24 | 50.07649 | 8.66215 | 2094 ft | 162 kts | 250° |
| 2026-04-18 06:24 | 50.07282 | 8.64680 | 1884 ft | 140 kts | 250° |
| 2026-04-18 06:24 | 50.06947 | 8.63273 | 1745 ft | 143 kts | 250° |
| 2026-04-18 06:25 | 50.06594 | 8.61797 | 1535 ft | 146 kts | 250° |
| 2026-04-18 06:25 | 50.06237 | 8.60342 | 1326 ft | 140 kts | 250° |
| 2026-04-18 06:25 | 50.05927 | 8.58957 | 1090 ft | 133 kts | 251° |
| 2026-04-18 06:25 | 50.05599 | 8.57584 | 927 ft | 139 kts | 249° |
| 2026-04-18 06:26 | 50.05256 | 8.56169 | 789 ft | 141 kts | 249° |
| 2026-04-18 06:26 | 50.04912 | 8.54733 | 593 ft | 142 kts | 249° |
| 2026-04-18 06:26 | 50.04564 | 8.53286 | 399 ft | 144 kts | 249° |
| 2026-04-18 06:26 | 50.04224 | 8.51867 | 352 ft | 131 kts | 250° |
| 2026-04-18 06:27 | 50.04001 | 8.50943 | 329 ft | 67 kts | 250° |
| 2026-04-18 06:27 | 50.03870 | 8.50459 | 322 ft | 42 kts | 237° |
| 2026-04-18 06:27 | 50.03729 | 8.50237 | 319 ft | 15 kts | 219° |
| 2026-04-18 06:27 | 50.03642 | 8.50202 | 323 ft | 13 kts | 151° |
| 2026-04-18 06:28 | 50.03640 | 8.50330 | 327 ft | 13 kts | 66° |
| 2026-04-18 06:28 | 50.03671 | 8.50460 | 329 ft | 13 kts | 69° |
| 2026-04-18 06:28 | 50.03701 | 8.50591 | 332 ft | 13 kts | 69° |
| 2026-04-18 06:28 | 50.03732 | 8.50720 | 334 ft | 13 kts | 70° |
| 2026-04-18 06:29 | 50.03763 | 8.50852 | 335 ft | 13 kts | 73° |
| 2026-04-18 06:29 | 50.03747 | 8.50984 | 351 ft | 13 kts | 114° |
| 2026-04-18 06:29 | 50.03706 | 8.51113 | 352 ft | 16 kts | 116° |
| 2026-04-18 06:29 | 50.03629 | 8.51359 | 358 ft | 31 kts | 116° |
| 2026-04-18 06:30 | 50.03541 | 8.51639 | 363 ft | 24 kts | 116° |
| 2026-04-18 06:30 | 50.03517 | 8.51873 | 361 ft | 23 kts | 82° |
| 2026-04-18 06:30 | 50.03538 | 8.52137 | 351 ft | 26 kts | 82° |
| 2026-04-18 06:30 | 50.03576 | 8.52412 | 350 ft | 26 kts | 69° |
| 2026-04-18 06:31 | 50.03611 | 8.52687 | 353 ft | 26 kts | 70° |
| 2026-04-18 06:31 | 50.03631 | 8.52841 | 352 ft | 11 kts | 103° |
| 2026-04-18 06:31 | 50.03599 | 8.52892 | 351 ft | 5 kts | 146° |
| 2026-04-18 06:31 | 50.03581 | 8.52945 | 354 ft | 6 kts | 90° |
| 2026-04-18 06:32 | 50.03582 | 8.53030 | 354 ft | 13 kts | 109° |
| 2026-04-18 06:32 | 50.03564 | 8.53067 | 352 ft | 14 kts | 137° |
| 2026-04-18 06:32 | 50.03563 | 8.53249 | 346 ft | 23 kts | 71° |
| 2026-04-18 06:32 | 50.03628 | 8.53514 | 354 ft | 29 kts | 69° |
| 2026-04-18 06:33 | 50.03706 | 8.53833 | 353 ft | 34 kts | 69° |
| 2026-04-18 06:33 | 50.03785 | 8.54159 | 359 ft | 25 kts | 70° |
| 2026-04-18 06:33 | 50.03856 | 8.54359 | 360 ft | 25 kts | 58° |
| 2026-04-18 06:33 | 50.03920 | 8.54603 | 358 ft | 21 kts | 69° |
| 2026-04-18 06:34 | 50.03959 | 8.54686 | 360 ft | 8 kts | 14° |
| 2026-04-18 06:34 | 50.04018 | 8.54667 | 361 ft | 9 kts | 338° |
| 2026-04-18 06:34 | 50.04074 | 8.54634 | 362 ft | 7 kts | 343° |
| 2026-04-18 06:34 | 50.04103 | 8.54663 | 364 ft | 5 kts | 67° |
| 2026-04-18 06:35 | 50.04115 | 8.54712 | 363 ft | 5 kts | 70° |
| 2026-04-18 06:35 | 50.04120 | 8.54735 | 362 ft | 0 kts | 70° |